createdAt,value
2022-11-09T00:02:28.590Z,99065.84
2022-11-09T00:05:32.350Z,99063.69
2022-11-09T00:08:37.802Z,99070.71
2022-11-09T00:11:41.389Z,99073.89
2022-11-09T00:14:45.186Z,99073.05
2022-11-09T00:17:48.730Z,99074.41
2022-11-09T00:20:52.343Z,99072.20
2022-11-09T00:23:56.863Z,99068.91
2022-11-09T00:27:00.625Z,99067.65
2022-11-09T00:30:04.995Z,99070.11
2022-11-09T00:33:10.701Z,99069.14
2022-11-09T00:36:14.791Z,99073.00
2022-11-09T00:39:18.745Z,99071.52
2022-11-09T00:42:22.536Z,99070.17
2022-11-09T00:45:26.145Z,99069.09
2022-11-09T00:48:29.849Z,99061.81
2022-11-09T00:51:33.551Z,99058.66
2022-11-09T00:54:37.150Z,99058.88
2022-11-09T00:57:40.861Z,99054.71
2022-11-09T01:00:44.526Z,99056.25
2022-11-09T01:03:48.566Z,99050.13
2022-11-09T01:06:52.296Z,99051.71
2022-11-09T01:09:56.095Z,99049.56
2022-11-09T01:12:59.933Z,99051.55
2022-11-09T01:16:07.852Z,99048.98
2022-11-09T01:19:12.650Z,99052.21
2022-11-09T01:22:18.402Z,99048.90
2022-11-09T01:25:22.102Z,99044.16
2022-11-09T01:28:25.774Z,99043.42
2022-11-09T01:31:29.520Z,99047.20
2022-11-09T01:34:33.646Z,99049.48
2022-11-09T01:37:37.440Z,99042.89
2022-11-09T01:40:41.564Z,99037.82
2022-11-09T01:43:46.382Z,99040.27
2022-11-09T01:46:55.315Z,99038.13
2022-11-09T01:50:00.783Z,99036.98
2022-11-09T01:53:09.216Z,99035.90
2022-11-09T01:56:14.815Z,99041.08
2022-11-09T01:59:22.279Z,99042.02
2022-11-09T02:02:26.073Z,99038.88
2022-11-09T02:05:33.642Z,99031.29
2022-11-09T02:08:37.910Z,99033.70
2022-11-09T02:11:41.659Z,99031.95
2022-11-09T02:14:47.761Z,99029.20
2022-11-09T02:17:53.739Z,99028.20
2022-11-09T02:20:58.638Z,99029.66
2022-11-09T02:24:02.761Z,99025.92
2022-11-09T02:27:07.088Z,99021.70
2022-11-09T02:30:13.683Z,99022.89
2022-11-09T02:33:18.019Z,99021.02
2022-11-09T02:36:23.043Z,99015.09
2022-11-09T02:39:28.670Z,99010.38
2022-11-09T02:42:32.644Z,99016.77
2022-11-09T02:45:36.316Z,99016.39
2022-11-09T02:48:40.056Z,99013.85
2022-11-09T02:51:43.679Z,99008.23
2022-11-09T02:54:47.674Z,99014.02
2022-11-09T02:57:51.324Z,99017.48
2022-11-09T03:00:55.059Z,99018.67
2022-11-09T03:03:58.792Z,99022.84
2022-11-09T03:07:02.524Z,99026.71
2022-11-09T03:10:07.971Z,99030.91
2022-11-09T03:13:11.700Z,99029.73
2022-11-09T03:16:15.461Z,99031.00
2022-11-09T03:19:19.170Z,99026.73
2022-11-09T03:22:22.893Z,99024.12
2022-11-09T03:25:27.061Z,99023.77
2022-11-09T03:28:30.738Z,99020.72
2022-11-09T03:31:34.503Z,99023.22
2022-11-09T03:34:38.262Z,99021.53
2022-11-09T03:37:41.967Z,99022.60
2022-11-09T03:40:45.733Z,99022.70
2022-11-09T03:43:49.394Z,99021.28
2022-11-09T03:46:53.074Z,99027.59
2022-11-09T03:49:56.842Z,99028.22
2022-11-09T03:53:01.222Z,99019.67
2022-11-09T03:56:05.218Z,99021.73
2022-11-09T03:59:08.986Z,99019.10
2022-11-09T04:02:12.666Z,99010.49
2022-11-09T04:05:16.630Z,99007.28
2022-11-09T04:08:20.515Z,99008.84
2022-11-09T04:11:24.160Z,99011.30
2022-11-09T04:14:27.824Z,99007.23
2022-11-09T04:17:31.638Z,99007.40
2022-11-09T04:20:35.281Z,99006.45
2022-11-09T04:23:39.050Z,98999.91
2022-11-09T04:26:42.897Z,99004.48
2022-11-09T04:29:46.434Z,99003.04
2022-11-09T04:32:50.102Z,99006.22
2022-11-09T04:35:53.873Z,99009.39
2022-11-09T04:38:57.510Z,99010.52
2022-11-09T04:42:01.531Z,99011.06
2022-11-09T04:45:06.566Z,99013.17
2022-11-09T04:48:11.989Z,99008.44
2022-11-09T04:51:15.634Z,99007.55
2022-11-09T04:54:19.383Z,99009.16
2022-11-09T04:57:23.053Z,99009.60
2022-11-09T05:00:26.859Z,99005.52
2022-11-09T05:03:30.659Z,99002.02
2022-11-09T05:06:34.593Z,98999.19
2022-11-09T05:09:38.533Z,98994.50
2022-11-09T05:12:45.876Z,98994.48
2022-11-09T05:15:49.893Z,98998.20
2022-11-09T05:18:53.446Z,99000.21
2022-11-09T05:22:17.217Z,98997.17
2022-11-09T05:25:20.859Z,99002.86
2022-11-09T05:28:24.448Z,98995.51
2022-11-09T05:31:28.807Z,98991.20
2022-11-09T05:34:32.829Z,98992.13
2022-11-09T05:37:37.833Z,98994.70
2022-11-09T05:40:41.600Z,98993.71
2022-11-09T05:43:45.579Z,98997.15
2022-11-09T05:46:50.095Z,99002.08
2022-11-09T05:49:53.845Z,99005.17
2022-11-09T05:52:59.747Z,99002.95
2022-11-09T05:56:04.703Z,99010.23
2022-11-09T05:59:09.381Z,99008.31
2022-11-09T06:02:13.350Z,99006.08
2022-11-09T06:05:17.302Z,99005.80
2022-11-09T06:08:21.100Z,99009.11
2022-11-09T06:11:24.752Z,99011.44
2022-11-09T06:14:28.347Z,99005.90
2022-11-09T06:17:32.121Z,99001.91
2022-11-09T06:20:35.891Z,99005.60
2022-11-09T06:23:39.631Z,99012.19
2022-11-09T06:26:43.398Z,99017.15
2022-11-09T06:29:46.936Z,99012.98
2022-11-09T06:32:50.646Z,99014.34
2022-11-09T06:35:56.466Z,99014.83
2022-11-09T06:39:00.461Z,99013.21
2022-11-09T06:42:04.344Z,99013.09
2022-11-09T06:45:10.242Z,99017.65
2022-11-09T06:48:14.198Z,99010.88
2022-11-09T06:51:18.210Z,99011.25
2022-11-09T06:54:21.853Z,99011.98
2022-11-09T06:57:25.556Z,99011.70
2022-11-09T07:00:29.479Z,99009.09
2022-11-09T07:03:33.100Z,99009.35
2022-11-09T07:06:41.177Z,99008.55
2022-11-09T07:09:44.953Z,99011.06
2022-11-09T07:12:49.476Z,99011.94
2022-11-09T07:15:54.866Z,99013.24
2022-11-09T07:18:58.757Z,99014.15
2022-11-09T07:22:02.501Z,99010.65
2022-11-09T07:25:08.136Z,99010.09
2022-11-09T07:28:12.742Z,99012.00
2022-11-09T07:31:16.468Z,99013.05
2022-11-09T07:34:20.166Z,99010.42
2022-11-09T07:37:23.879Z,99006.49
2022-11-09T07:40:27.507Z,99004.11
2022-11-09T07:43:31.350Z,99006.27
2022-11-09T07:46:35.542Z,99007.05
2022-11-09T07:49:39.378Z,99003.77
2022-11-09T07:52:43.023Z,99007.86
2022-11-09T07:55:46.687Z,98999.83
2022-11-09T07:58:51.744Z,99002.73
2022-11-09T08:01:55.618Z,99003.30
2022-11-09T08:04:59.278Z,99002.86
2022-11-09T08:08:04.828Z,99001.57
2022-11-09T08:11:08.599Z,98998.73
2022-11-09T08:14:12.783Z,98991.80
2022-11-09T08:17:16.544Z,98989.54
2022-11-09T08:20:21.168Z,98987.07
2022-11-09T08:23:24.855Z,98984.96
2022-11-09T08:26:28.479Z,98982.77
2022-11-09T08:29:32.064Z,98980.23
2022-11-09T08:32:36.033Z,98976.69
2022-11-09T08:35:39.780Z,98983.65
2022-11-09T08:38:44.962Z,98981.92
2022-11-09T08:41:48.512Z,98978.55
2022-11-09T08:44:52.199Z,98975.56
2022-11-09T08:47:59.540Z,98978.45
2022-11-09T08:51:03.226Z,98976.26
2022-11-09T08:54:07.362Z,98974.05
2022-11-09T08:57:11.992Z,98974.05
2022-11-09T09:00:17.667Z,98977.23
2022-11-09T09:03:21.345Z,98973.48
2022-11-09T09:06:30.668Z,98974.63
2022-11-09T09:09:37.178Z,98974.74
2022-11-09T09:12:40.946Z,98974.31
2022-11-09T09:15:44.489Z,98970.20
2022-11-09T09:18:49.807Z,98972.31
2022-11-09T09:21:53.906Z,98973.59
2022-11-09T09:24:57.563Z,98966.30
2022-11-09T09:28:01.153Z,98966.92
2022-11-09T09:31:05.026Z,98967.58
2022-11-09T09:34:08.899Z,98966.27
2022-11-09T09:37:12.552Z,98961.40
2022-11-09T09:40:25.307Z,98958.13
2022-11-09T09:43:37.181Z,98954.60
2022-11-09T09:46:47.323Z,98948.25
2022-11-09T09:49:58.460Z,98941.76
2022-11-09T09:53:23.871Z,98940.29
2022-11-09T09:56:33.973Z,98940.43
2022-11-09T09:59:42.330Z,98936.94
2022-11-09T10:02:46.193Z,98932.39
2022-11-09T10:05:58.519Z,98935.41
2022-11-09T10:09:10.124Z,98937.13
2022-11-09T10:12:25.673Z,98931.88
2022-11-09T10:15:34.396Z,98925.86
2022-11-09T10:18:48.038Z,98921.91
2022-11-09T10:21:57.804Z,98917.94
2022-11-09T10:25:27.333Z,98922.36
2022-11-09T10:29:09.129Z,98921.09
2022-11-09T10:32:16.385Z,98916.20
2022-11-09T10:35:27.566Z,98915.38
2022-11-09T10:38:36.902Z,98915.48
2022-11-09T10:41:43.681Z,98914.48
2022-11-09T10:44:46.698Z,98912.03
2022-11-09T10:47:51.195Z,98909.77
2022-11-09T10:50:54.145Z,98905.82
2022-11-09T10:54:15.429Z,98906.48
2022-11-09T10:57:21.254Z,98907.80
2022-11-09T11:00:24.667Z,98909.18
2022-11-09T11:03:28.409Z,98906.74
2022-11-09T11:06:31.513Z,98904.42
2022-11-09T11:09:34.588Z,98906.06
2022-11-09T11:12:37.437Z,98907.77
2022-11-09T11:15:42.025Z,98908.77
2022-11-09T11:18:47.269Z,98909.98
2022-11-09T11:22:15.381Z,98911.28
2022-11-09T11:25:21.340Z,98915.85
2022-11-09T11:28:31.858Z,98912.18
2022-11-09T11:31:34.795Z,98908.79
2022-11-09T11:34:59.313Z,98904.02
2022-11-09T11:38:16.776Z,98909.27
2022-11-09T11:41:46.387Z,98905.95
2022-11-09T11:45:34.070Z,98904.61
2022-11-09T11:48:55.650Z,98905.75
2022-11-09T11:52:06.390Z,98909.77
2022-11-09T11:55:23.930Z,98907.86
2022-11-09T11:58:43.825Z,98909.98
2022-11-09T12:02:18.348Z,98908.98
2022-11-09T12:05:46.102Z,98906.05
2022-11-09T12:09:01.827Z,98903.90
2022-11-09T12:12:15.058Z,98894.92
2022-11-09T12:15:27.943Z,98892.23
2022-11-09T12:18:44.453Z,98894.47
2022-11-09T12:21:55.402Z,98895.65
2022-11-09T12:25:09.586Z,98888.52
2022-11-09T12:28:29.376Z,98887.91
2022-11-09T12:31:46.716Z,98883.25
2022-11-09T12:34:57.105Z,98882.98
2022-11-09T12:38:08.206Z,98883.02
2022-11-09T12:41:15.741Z,98877.88
2022-11-09T12:44:22.679Z,98876.20
2022-11-09T12:47:31.712Z,98874.23
2022-11-09T12:50:36.157Z,98870.21
2022-11-09T12:53:40.377Z,98874.63
2022-11-09T12:56:51.770Z,98875.46
2022-11-09T12:59:56.081Z,98875.08
2022-11-09T13:03:02.223Z,98878.45
2022-11-09T13:06:17.796Z,98874.10
2022-11-09T13:09:25.318Z,98875.28
2022-11-09T13:12:38.715Z,98875.27
2022-11-09T13:16:10.948Z,98877.84
2022-11-09T13:19:54.280Z,98882.48
2022-11-09T13:23:01.660Z,98882.59
2022-11-09T13:26:05.628Z,98884.74
2022-11-09T13:29:20.418Z,98886.14
2022-11-09T13:32:28.830Z,98887.96
2022-11-09T13:36:16.469Z,98894.55
2022-11-09T13:39:38.504Z,98902.00
2022-11-09T13:42:41.676Z,98900.91
2022-11-09T13:45:46.279Z,98899.65
2022-11-09T13:48:50.499Z,98902.65
2022-11-09T13:51:53.981Z,98901.63
2022-11-09T13:54:57.213Z,98899.81
2022-11-09T13:58:03.790Z,98899.77
2022-11-09T14:01:23.886Z,98905.15
2022-11-09T14:04:28.365Z,98911.59
2022-11-09T14:07:34.738Z,98913.97
2022-11-09T14:10:54.735Z,98916.52
2022-11-09T14:14:17.702Z,98911.88
2022-11-09T14:17:29.064Z,98907.38
2022-11-09T14:20:40.831Z,98908.35
2022-11-09T14:23:43.813Z,98908.28
2022-11-09T14:27:12.404Z,98905.77
2022-11-09T14:30:20.864Z,98900.39
2022-11-09T14:33:26.016Z,98898.60
2022-11-09T14:36:30.535Z,98896.23
2022-11-09T14:39:34.498Z,98903.30
2022-11-09T14:42:40.795Z,98905.46
2022-11-09T14:45:50.646Z,98904.60
2022-11-09T14:48:55.173Z,98904.48
2022-11-09T14:51:58.775Z,98906.38
2022-11-09T14:55:02.082Z,98907.04
2022-11-09T14:58:05.371Z,98912.42
2022-11-09T15:01:16.211Z,98911.83
2022-11-09T15:04:23.075Z,98909.70
2022-11-09T15:07:29.855Z,98904.52
2022-11-09T15:10:33.815Z,98905.33
2022-11-09T15:13:39.495Z,98906.08
2022-11-09T15:16:42.833Z,98906.69
2022-11-09T15:19:51.220Z,98914.92
2022-11-09T15:22:55.885Z,98915.77
2022-11-09T15:25:58.865Z,98918.11
2022-11-09T15:29:03.244Z,98917.69
2022-11-09T15:32:17.568Z,98912.14
2022-11-09T15:35:20.944Z,98919.16
2022-11-09T15:38:33.373Z,98925.29
2022-11-09T15:41:37.377Z,98924.83
2022-11-09T15:44:40.346Z,98922.53
2022-11-09T15:47:51.380Z,98912.15
2022-11-09T15:50:54.570Z,98912.27
2022-11-09T15:53:57.514Z,98917.91
2022-11-09T15:57:00.505Z,98917.23
2022-11-09T16:00:12.612Z,98916.62
2022-11-09T16:03:17.349Z,98913.10
2022-11-09T16:06:21.810Z,98910.15
2022-11-09T16:09:24.750Z,98914.30
2022-11-09T16:12:27.640Z,98922.46
2022-11-09T16:15:31.140Z,98930.32
2022-11-09T16:18:34.628Z,98933.92
2022-11-09T16:21:37.628Z,98937.15
2022-11-09T16:24:41.542Z,98937.30
2022-11-09T16:27:52.214Z,98930.74
2022-11-09T16:30:55.226Z,98928.98
2022-11-09T16:33:58.703Z,98930.25
2022-11-09T16:37:03.461Z,98936.61
2022-11-09T16:40:11.871Z,98938.86
2022-11-09T16:43:15.152Z,98941.27
2022-11-09T16:46:22.667Z,98940.19
2022-11-09T16:49:25.712Z,98941.36
2022-11-09T16:52:29.031Z,98944.16
2022-11-09T16:55:32.221Z,98940.28
2022-11-09T16:58:35.620Z,98940.20
2022-11-09T17:01:38.564Z,98943.98
2022-11-09T17:04:41.523Z,98944.95
2022-11-09T17:07:46.432Z,98946.48
2022-11-09T17:10:49.343Z,98950.52
2022-11-09T17:13:56.531Z,98949.48
2022-11-09T17:16:59.495Z,98950.58
2022-11-09T17:20:05.096Z,98951.08
2022-11-09T17:23:08.343Z,98951.77
2022-11-09T17:26:12.358Z,98956.48
2022-11-09T17:29:15.858Z,98960.54
2022-11-09T17:32:24.375Z,98963.62
2022-11-09T17:35:28.227Z,98965.77
2022-11-09T17:38:32.632Z,98970.40
2022-11-09T17:41:41.502Z,98971.26
2022-11-09T17:44:45.755Z,98970.27
2022-11-09T17:47:49.205Z,98968.80
2022-11-09T17:50:53.305Z,98971.30
2022-11-09T17:53:57.366Z,98970.41
2022-11-09T17:57:01.762Z,98970.33
2022-11-09T18:00:09.845Z,98968.18
2022-11-09T18:03:13.323Z,98969.65
2022-11-09T18:06:19.382Z,98969.63
2022-11-09T18:12:46.044Z,98977.23
2022-11-09T18:15:49.619Z,98983.58
2022-11-09T18:18:58.208Z,98983.06
2022-11-09T18:22:03.042Z,98983.02
2022-11-09T18:25:08.482Z,98980.30
2022-11-09T18:28:12.908Z,98978.95
2022-11-09T18:31:16.167Z,98981.55
2022-11-09T18:34:19.154Z,98984.09
2022-11-09T18:37:24.224Z,98988.71
2022-11-09T18:40:28.000Z,98989.42
2022-11-09T18:43:32.142Z,98989.66
2022-11-09T18:46:35.434Z,98990.81
2022-11-09T18:49:38.417Z,98990.98
2022-11-09T18:52:41.704Z,98990.58
2022-11-09T18:55:45.145Z,98993.73
2022-11-09T18:58:49.994Z,98995.63
2022-11-09T19:01:53.433Z,98997.56
2022-11-09T19:04:56.422Z,98999.23
2022-11-09T19:07:59.322Z,98995.29
2022-11-09T19:11:06.508Z,98998.34
2022-11-09T19:14:10.087Z,98998.94
2022-11-09T19:17:14.710Z,98998.41
2022-11-09T19:20:18.275Z,98998.76
2022-11-09T19:23:21.322Z,98998.94
2022-11-09T19:26:24.312Z,99000.70
2022-11-09T19:29:27.306Z,98999.40
2022-11-09T19:32:32.412Z,98998.48
2022-11-09T19:35:37.381Z,98996.86
2022-11-09T19:38:40.673Z,98996.57
2022-11-09T19:41:44.276Z,98997.84
2022-11-09T19:44:49.845Z,98997.86
2022-11-09T19:47:56.807Z,98998.06
2022-11-09T19:51:01.041Z,98996.73
2022-11-09T19:54:05.775Z,98999.80
2022-11-09T19:57:09.483Z,98998.77
2022-11-09T20:00:15.754Z,98996.77
2022-11-09T20:03:17.921Z,98997.98
2022-11-09T20:06:22.837Z,98997.73
2022-11-09T20:09:29.655Z,98996.23
2022-11-09T20:12:54.149Z,98993.73
2022-11-09T20:16:01.914Z,98988.63
2022-11-09T20:19:08.765Z,98982.63
2022-11-09T20:22:12.599Z,98980.23
2022-11-09T20:25:16.509Z,98981.19
2022-11-09T20:28:20.562Z,98981.83
2022-11-09T20:31:24.701Z,98980.08
2022-11-09T20:34:30.559Z,98982.02
2022-11-09T20:37:34.263Z,98980.77
2022-11-09T20:40:37.914Z,98978.77
2022-11-09T20:43:42.287Z,98978.29
2022-11-09T20:46:45.851Z,98981.06
2022-11-09T20:49:49.538Z,98976.23
2022-11-09T20:52:53.310Z,98973.65
2022-11-09T20:55:56.849Z,98972.90
2022-11-09T20:59:00.481Z,98973.98
2022-11-09T21:02:04.332Z,98975.37
2022-11-09T21:05:08.839Z,98969.70
2022-11-09T21:08:12.563Z,98974.05
2022-11-09T21:11:16.720Z,98980.34
2022-11-09T21:14:20.490Z,98981.51
2022-11-09T21:17:24.577Z,98977.98
2022-11-09T21:20:28.278Z,98980.62
2022-11-09T21:23:50.177Z,98983.26
2022-11-09T21:27:11.694Z,98986.13
2022-11-09T21:30:15.836Z,98979.79
2022-11-09T21:33:19.478Z,98982.09
2022-11-09T21:36:23.168Z,98983.70
2022-11-09T21:39:26.845Z,98984.27
2022-11-09T21:42:30.605Z,98984.04
2022-11-09T21:45:34.251Z,98985.48
2022-11-09T21:48:37.865Z,98986.83
2022-11-09T21:51:41.859Z,98992.85
2022-11-09T21:54:45.627Z,98994.94
2022-11-09T21:57:49.935Z,98995.07
2022-11-09T22:00:53.601Z,99006.78
2022-11-09T22:03:57.500Z,99009.05
2022-11-09T22:07:01.189Z,99007.25
2022-11-09T22:10:10.515Z,99009.27
2022-11-09T22:13:33.606Z,99011.72
2022-11-09T22:16:37.415Z,99018.39
2022-11-09T22:19:59.451Z,99020.80
2022-11-09T22:23:06.782Z,99023.51
2022-11-09T22:26:10.516Z,99024.92
2022-11-09T22:29:14.193Z,99022.02
2022-11-09T22:32:18.063Z,99022.36
2022-11-09T22:35:21.715Z,99024.75
2022-11-09T22:38:25.885Z,99024.11
2022-11-09T22:41:29.551Z,99029.50
2022-11-09T22:44:33.400Z,99032.09
2022-11-09T22:47:37.005Z,99029.71
2022-11-09T22:50:40.655Z,99036.05
2022-11-09T22:53:47.694Z,99037.40
2022-11-09T22:56:51.355Z,99044.78
2022-11-09T22:59:55.053Z,99049.24
2022-11-09T23:02:58.290Z,99055.20
2022-11-09T23:06:05.989Z,99052.48
2022-11-09T23:09:09.093Z,99050.25
2022-11-09T23:12:12.083Z,99054.48
2022-11-09T23:15:15.377Z,99054.33
2022-11-09T23:18:41.960Z,99052.25
2022-11-09T23:21:44.820Z,99055.58
2022-11-09T23:25:06.369Z,99057.05
2022-11-09T23:28:11.403Z,99053.19
2022-11-09T23:31:18.893Z,99053.23
2022-11-09T23:34:22.164Z,99058.35
2022-11-09T23:37:25.149Z,99062.88
2022-11-09T23:40:28.878Z,99061.95
2022-11-09T23:43:32.254Z,99064.50
2022-11-09T23:46:35.109Z,99061.88
2022-11-09T23:49:37.965Z,99067.08
2022-11-09T23:52:40.914Z,99071.71
2022-11-09T23:55:43.801Z,99075.23
2022-11-09T23:58:51.547Z,99081.48
